Capital City Airport
KLAN : now visible

Airfield :











YOU CAN JOIN US ON...

 
LOGIN :

Register | Disclaimer

   EN    FR    IT 

 









Legend :    VFR   Marginal VFR   IFR   Intensive IFR   Very Intensive IFR
Visi :
Ceiling :
>= 8 km
>= 3000ft
5 to 8 km
1000 to 3000 ft
1500m to 5 km
500 to 1000 ft
800 to 1500m
200 to 500 ft
< 800m
< 200 ft
Symbols :   Thunderstorms  Fog  Heavy snow  Heavy precipitations  Wind > 20 kt






- Airport Elevation : 861 ft
- IATA code : LAN


KLAN - Capital City

CURRENT METAR :
  • 231253Z 20015G25KT 10SM BKN090 BKN110 12/03 A2976 RMK AO2 SLP078 T01170033

EXPIRED METARs :
  • 231153Z 20012KT 10SM OVC075 11/03 A2977 RMK AO2 RAE1059 SLP082 P0000 60002 70002 T01110028 10122 20100 56016
  • 231053Z 19014KT 10SM -RA OVC065 10/03 A2979 RMK AO2 PK WND 22026/1032 SLP088 P0002 T01000033
  • 230953Z 20010KT 10SM -RA OVC065 10/03 A2981 RMK AO2 RAB10 SLP094 P0000 T01000033
  • 230853Z 21013KT 10SM SCT090 BKN110 12/01 A2982 RMK AO2 SLP098 T01220006 56022

TAF KLAN
Valid from the 23 at 12:00 until the 24 at 12:00 UTC


231128Z 2312/2412 20013G23KT P6SM -SHRA OVC070
FM231500 23017G28KT P6SM BKN150
FM240000 23012G23KT P6SM VCTS BKN060CB
FM240400 27010G19KT P6SM VCSH BKN025
KZOB FIR / North America



MET'MAP, your aeronautical weather chart ! - Copyright ORBIFLY December 2007 - Disclaimer

ORBIFLY MET'MAP TEAM :

Programming & Development : Alexandra Zaïnal
Original concept : Baudouin d'Aumeries
Technical & hardware support : Manuel Goepfert
Assistance : Marc-Olivier Méhu




SOURCES & CREDITS :

   NOAA       Earth
Advisory